createdAt,value
2018-08-06T00:00:12.036Z,42.64
2018-08-06T00:01:12.046Z,42.06
2018-08-06T00:02:12.052Z,42.06
2018-08-06T00:03:12.093Z,42.1
2018-08-06T00:04:12.042Z,42.1
2018-08-06T00:05:12.032Z,41.83
2018-08-06T00:06:12.082Z,41.99
2018-08-06T00:07:12.046Z,42.29
2018-08-06T00:08:12.043Z,42.48
2018-08-06T00:09:12.102Z,42.43
2018-08-06T00:10:11.997Z,42.47
2018-08-06T00:11:12.147Z,42.28
2018-08-06T00:12:12.038Z,42.14
2018-08-06T00:13:11.982Z,42.27
2018-08-06T00:14:12.048Z,42.06
2018-08-06T00:15:12.010Z,42.08
2018-08-06T00:16:12.043Z,41.9
2018-08-06T00:17:12.053Z,42.2
2018-08-06T00:18:12.012Z,41.94
2018-08-06T00:19:12.042Z,41.93
2018-08-06T00:20:12.103Z,41.88
2018-08-06T00:21:11.976Z,42.12
2018-08-06T00:22:12.153Z,41.92
2018-08-06T00:23:11.989Z,41.81
2018-08-06T00:24:12.000Z,41.82
2018-08-06T00:25:11.967Z,41.94
2018-08-06T00:26:12.000Z,42.08
2018-08-06T00:27:12.020Z,41.92
2018-08-06T00:28:12.078Z,41.85
2018-08-06T00:29:12.030Z,41.86
2018-08-06T00:30:12.139Z,41.99
2018-08-06T00:31:12.042Z,42
2018-08-06T00:32:12.015Z,42.05
2018-08-06T00:33:11.976Z,41.82
2018-08-06T00:34:11.961Z,41.85
2018-08-06T00:35:12.017Z,41.93
2018-08-06T00:36:11.974Z,41.96
2018-08-06T00:37:11.979Z,41.87
2018-08-06T00:38:11.990Z,41.9
2018-08-06T00:39:11.945Z,42.08
2018-08-06T00:40:11.954Z,41.82
2018-08-06T00:41:12.100Z,41.96
2018-08-06T00:42:11.947Z,41.79
2018-08-06T00:43:11.991Z,41.76
2018-08-06T00:44:11.971Z,41.81
2018-08-06T00:45:11.963Z,42.35
2018-08-06T00:46:11.961Z,42.96
2018-08-06T00:47:11.951Z,42.62
2018-08-06T00:48:11.955Z,42.53
2018-08-06T00:49:11.961Z,42.71
2018-08-06T00:50:11.971Z,42.54
2018-08-06T00:51:11.923Z,42.6
2018-08-06T00:52:11.983Z,42.64
2018-08-06T00:53:11.944Z,42.6
2018-08-06T00:54:11.948Z,42.74
2018-08-06T00:55:12.091Z,42.78
2018-08-06T00:56:12.150Z,42.62
2018-08-06T00:57:11.953Z,42.68
2018-08-06T00:58:12.017Z,42.78
2018-08-06T00:59:11.934Z,42.58
2018-08-06T01:00:11.961Z,43.11
2018-08-06T01:01:11.951Z,43.15
2018-08-06T01:02:12.044Z,43.5
2018-08-06T01:03:12.099Z,44.06
2018-08-06T01:04:12.163Z,44.15
2018-08-06T01:05:11.963Z,44.24
2018-08-06T01:06:11.968Z,44.49
2018-08-06T01:07:12.067Z,45.23
2018-08-06T01:08:12.007Z,45.34
2018-08-06T01:09:12.056Z,44.83
2018-08-06T01:10:12.112Z,44.72
2018-08-06T01:11:11.936Z,45.04
2018-08-06T01:12:12.009Z,44.7
2018-08-06T01:13:12.034Z,44.81
2018-08-06T01:14:12.016Z,45.29
2018-08-06T01:15:12.048Z,45.32
2018-08-06T01:16:12.005Z,44.9
2018-08-06T01:17:12.043Z,44.79
2018-08-06T01:18:12.035Z,44.7
2018-08-06T01:19:12.058Z,44.7
2018-08-06T01:20:11.997Z,44.73
2018-08-06T01:21:11.968Z,45.25
2018-08-06T01:22:11.991Z,45.41
2018-08-06T01:23:12.000Z,44.89
2018-08-06T01:24:11.959Z,45.24
2018-08-06T01:25:11.996Z,45.5
2018-08-06T01:26:12.006Z,45.31
2018-08-06T01:27:12.022Z,45.29
2018-08-06T01:28:12.148Z,45.97
2018-08-06T01:29:11.977Z,45.93
2018-08-06T01:30:11.951Z,45.43
2018-08-06T01:31:12.039Z,45.28
2018-08-06T01:32:11.985Z,46.02
2018-08-06T01:33:12.073Z,45.5
2018-08-06T01:34:12.034Z,45.19
2018-08-06T01:35:11.998Z,45.14
2018-08-06T01:36:11.936Z,45.15
2018-08-06T01:37:12.026Z,45.62
2018-08-06T01:38:12.117Z,45.24
2018-08-06T01:39:12.032Z,45.54
2018-08-06T01:40:12.017Z,45.28
2018-08-06T01:41:12.108Z,45.39
2018-08-06T01:42:12.036Z,45.26
2018-08-06T01:43:12.082Z,45.36
2018-08-06T01:44:11.946Z,45.34
2018-08-06T01:45:12.030Z,45.71
2018-08-06T01:46:12.053Z,45.48
2018-08-06T01:47:12.041Z,45.44
2018-08-06T01:48:12.104Z,45.48
2018-08-06T01:49:11.983Z,46.26
2018-08-06T01:50:11.959Z,45.72
2018-08-06T01:51:11.925Z,45.46
2018-08-06T01:52:11.932Z,46.11
2018-08-06T01:53:11.948Z,46.01
2018-08-06T01:54:11.947Z,45.65
2018-08-06T01:55:11.965Z,46.33
2018-08-06T01:56:11.956Z,47.28
2018-08-06T01:57:11.978Z,47.04
2018-08-06T01:58:11.935Z,46.86
2018-08-06T01:59:11.941Z,46.7
2018-08-06T02:00:11.926Z,47.14
2018-08-06T02:01:11.981Z,47.64
2018-08-06T02:02:11.951Z,47.44
2018-08-06T02:03:11.946Z,47.51
2018-08-06T02:04:11.906Z,47.34
2018-08-06T02:05:11.915Z,47.32
2018-08-06T02:06:11.965Z,47.94
2018-08-06T02:07:11.961Z,47.73
2018-08-06T02:08:11.981Z,47.83
2018-08-06T02:09:11.957Z,48.19
2018-08-06T02:10:11.986Z,48.17
2018-08-06T02:11:11.971Z,48.5
2018-08-06T02:12:11.960Z,48.67
2018-08-06T02:13:12.008Z,48.84
2018-08-06T02:14:12.033Z,48.09
2018-08-06T02:15:12.085Z,48.36
2018-08-06T02:16:11.994Z,49.5
2018-08-06T02:17:11.937Z,48.95
2018-08-06T02:18:12.072Z,48.85
2018-08-06T02:19:12.029Z,49.47
2018-08-06T02:20:12.007Z,49.58
2018-08-06T02:21:12.110Z,49.39
2018-08-06T02:22:12.007Z,49.56
2018-08-06T02:23:11.916Z,49.3
2018-08-06T02:24:11.980Z,48.96
2018-08-06T02:25:12.008Z,49.5
2018-08-06T02:26:11.931Z,50.1
2018-08-06T02:27:12.046Z,49.42
2018-08-06T02:28:11.935Z,48.92
2018-08-06T02:29:11.966Z,50.41
2018-08-06T02:30:11.969Z,50.7
2018-08-06T02:31:11.985Z,51.11
2018-08-06T02:32:12.164Z,50.88
2018-08-06T02:33:12.098Z,51
2018-08-06T02:34:12.005Z,51.07
2018-08-06T02:35:12.017Z,51.5
2018-08-06T02:36:12.018Z,51.16
2018-08-06T02:37:12.008Z,51.26
2018-08-06T02:38:11.936Z,50.67
2018-08-06T02:39:12.044Z,50.48
2018-08-06T02:40:12.054Z,51.22
2018-08-06T02:41:12.138Z,50.95
2018-08-06T02:42:12.005Z,51.6
2018-08-06T02:43:12.085Z,52.03
2018-08-06T02:44:12.046Z,51.16
2018-08-06T02:45:12.040Z,51.68
2018-08-06T02:46:12.071Z,51.21
2018-08-06T02:47:11.977Z,51.45
2018-08-06T02:48:11.991Z,51.73
2018-08-06T02:49:11.952Z,52.08
2018-08-06T02:50:12.022Z,51.38
2018-08-06T02:51:11.975Z,51.17
2018-08-06T02:52:11.966Z,51.47
2018-08-06T02:53:12.092Z,52.16
2018-08-06T02:54:12.027Z,52.74
2018-08-06T02:55:11.949Z,52.37
2018-08-06T02:56:11.909Z,51.65
2018-08-06T02:57:11.923Z,52.43
2018-08-06T02:58:11.977Z,52.78
2018-08-06T02:59:11.967Z,52.17
2018-08-06T03:00:12.248Z,51.65
2018-08-06T03:01:12.022Z,52.18
2018-08-06T03:02:12.054Z,52.54
2018-08-06T03:03:11.936Z,52.83
2018-08-06T03:04:11.919Z,52.42
2018-08-06T03:05:11.940Z,53.03
2018-08-06T03:06:12.284Z,52.45
2018-08-06T03:07:11.978Z,52.95
2018-08-06T03:08:11.965Z,52.99
2018-08-06T03:09:11.926Z,52.51
2018-08-06T03:10:11.955Z,52.34
2018-08-06T03:11:11.964Z,52.45
2018-08-06T03:12:11.926Z,52.26
2018-08-06T03:13:11.934Z,51.91
2018-08-06T03:14:11.936Z,52.08
2018-08-06T03:15:11.937Z,51.96
2018-08-06T03:16:11.924Z,53.03
2018-08-06T03:17:11.952Z,52.49
2018-08-06T03:18:11.947Z,52.94
2018-08-06T03:19:11.965Z,52.56
2018-08-06T03:20:11.906Z,52.27
2018-08-06T03:21:11.914Z,53.72
2018-08-06T03:22:11.927Z,54.03
2018-08-06T03:23:11.964Z,52.94
2018-08-06T03:24:11.899Z,52.67
2018-08-06T03:25:11.915Z,52.68
2018-08-06T03:26:12.016Z,53.54
2018-08-06T03:27:12.054Z,53.67
2018-08-06T03:28:11.925Z,52.83
2018-08-06T03:29:11.960Z,53.54
2018-08-06T03:30:11.921Z,53.76
2018-08-06T03:31:12.019Z,53.56
2018-08-06T03:32:11.916Z,53.04
2018-08-06T03:33:11.906Z,53.13
2018-08-06T03:34:12.070Z,53.79
2018-08-06T03:35:12.092Z,53.3
2018-08-06T03:36:11.907Z,53.2
2018-08-06T03:37:11.936Z,53.44
2018-08-06T03:38:11.908Z,53.88
2018-08-06T03:39:12.172Z,54.09
2018-08-06T03:40:12.425Z,53.42
2018-08-06T03:41:12.019Z,54.3
2018-08-06T03:42:12.012Z,53.97
2018-08-06T03:43:12.416Z,54.07
2018-08-06T03:44:12.064Z,54.11
2018-08-06T03:45:11.933Z,54.47
2018-08-06T03:46:11.922Z,53.85
2018-08-06T03:47:11.945Z,54.79
2018-08-06T03:48:12.064Z,55.36
2018-08-06T03:49:11.921Z,55.1
2018-08-06T03:50:46.759Z,54.83
2018-08-06T03:51:12.052Z,54.38
2018-08-06T03:52:11.889Z,53.91
2018-08-06T03:53:12.121Z,54.22
2018-08-06T03:54:11.970Z,55.37
2018-08-06T03:55:11.994Z,55.52
2018-08-06T03:56:11.935Z,55.17
2018-08-06T03:57:11.912Z,55.12
2018-08-06T03:58:19.507Z,55.05
2018-08-06T03:59:12.058Z,55.33
2018-08-06T04:00:11.965Z,54.77
2018-08-06T04:01:12.015Z,55.38
2018-08-06T04:02:12.216Z,54.35
2018-08-06T04:03:11.992Z,55.84
2018-08-06T04:04:12.062Z,55.46
2018-08-06T04:05:12.108Z,56.08
2018-08-06T04:06:11.947Z,55.87
2018-08-06T04:07:12.066Z,55.9
2018-08-06T04:08:11.992Z,56.06
2018-08-06T04:09:11.995Z,56.01
2018-08-06T04:10:11.930Z,55.35
2018-08-06T04:11:11.923Z,55.73
2018-08-06T04:12:11.977Z,55.24
2018-08-06T04:13:11.968Z,54.37
2018-08-06T04:14:11.957Z,54.27
2018-08-06T04:15:11.997Z,54.25
2018-08-06T04:16:12.015Z,54.02
2018-08-06T04:17:12.101Z,54.93
2018-08-06T04:18:12.029Z,54.99
2018-08-06T04:19:11.963Z,54.87
2018-08-06T04:20:12.017Z,55.01
2018-08-06T04:21:12.052Z,54.56
2018-08-06T04:22:11.957Z,54.2
2018-08-06T04:23:12.026Z,54.61
2018-08-06T04:24:11.966Z,54.72
2018-08-06T04:25:11.991Z,54.31
2018-08-06T04:26:11.991Z,54.08
2018-08-06T04:27:11.933Z,55.1
2018-08-06T04:28:11.932Z,54.22
2018-08-06T04:29:11.958Z,54.76
2018-08-06T04:30:11.955Z,54.01
2018-08-06T04:31:11.962Z,54.34
2018-08-06T04:32:11.977Z,54.32
2018-08-06T04:33:12.270Z,54.53
2018-08-06T04:34:11.980Z,54.38
2018-08-06T04:35:12.040Z,53.54
2018-08-06T04:36:12.093Z,53.15
2018-08-06T04:37:12.103Z,53.16
2018-08-06T04:38:11.957Z,52.72
2018-08-06T04:39:12.033Z,53.28
2018-08-06T04:40:12.153Z,53.01
2018-08-06T04:41:11.966Z,52.86
2018-08-06T04:42:12.161Z,53.4
2018-08-06T04:43:12.056Z,52.65
2018-08-06T04:44:12.071Z,52.86
2018-08-06T04:45:12.030Z,52.79
2018-08-06T04:46:12.002Z,52.71
2018-08-06T04:47:12.091Z,52.52
2018-08-06T04:48:12.074Z,52.8
2018-08-06T04:49:11.991Z,52.68
2018-08-06T04:50:11.998Z,52.93
2018-08-06T04:51:12.047Z,52.63
2018-08-06T04:52:12.054Z,52.61
2018-08-06T04:53:12.063Z,52.63
2018-08-06T04:54:11.980Z,52.4
2018-08-06T04:55:12.007Z,52.82
2018-08-06T04:56:12.028Z,52.92
2018-08-06T04:57:12.023Z,52.82
2018-08-06T04:58:12.039Z,52.74
2018-08-06T04:59:12.086Z,52.73
2018-08-06T05:00:12.120Z,52.64
2018-08-06T05:01:12.009Z,52.89
2018-08-06T05:02:11.967Z,52.52
2018-08-06T05:03:11.978Z,52.94
2018-08-06T05:04:12.129Z,52.72
2018-08-06T05:05:12.027Z,52.87
2018-08-06T05:06:11.994Z,52.89
2018-08-06T05:07:12.007Z,52.62
2018-08-06T05:08:12.009Z,52.76
2018-08-06T05:09:12.029Z,52.98
2018-08-06T05:10:12.060Z,52.78
2018-08-06T05:11:12.075Z,52.76
2018-08-06T05:12:11.988Z,52.56
2018-08-06T05:13:12.061Z,52.71
2018-08-06T05:14:12.046Z,52.83
2018-08-06T05:15:12.031Z,52.55
2018-08-06T05:16:12.151Z,52.77
2018-08-06T05:17:12.325Z,52.74
2018-08-06T05:18:12.021Z,52.67
2018-08-06T05:19:12.039Z,52.66
2018-08-06T05:20:12.033Z,52.66
2018-08-06T05:21:12.017Z,52.73
2018-08-06T05:22:11.996Z,52.52
2018-08-06T05:23:12.160Z,52.64
2018-08-06T05:24:12.077Z,52.45
2018-08-06T05:25:12.087Z,52.27
2018-08-06T05:26:12.036Z,52.39
2018-08-06T05:27:12.048Z,52.18
2018-08-06T05:28:12.038Z,52.7
2018-08-06T05:29:12.098Z,52.24
2018-08-06T05:30:12.058Z,52.5
2018-08-06T05:31:12.208Z,52.68
2018-08-06T05:32:12.073Z,52.47
2018-08-06T05:33:12.040Z,52.57
2018-08-06T05:34:12.023Z,52.12
2018-08-06T05:35:12.039Z,52.23
2018-08-06T05:36:12.071Z,52.45
2018-08-06T05:37:12.044Z,52.53
2018-08-06T05:38:12.131Z,52.36
2018-08-06T05:39:12.081Z,52.59
2018-08-06T05:40:12.173Z,52.27
2018-08-06T05:41:12.134Z,52.28
2018-08-06T05:42:12.043Z,52.35
2018-08-06T05:43:12.048Z,52.43
2018-08-06T05:44:12.298Z,52.6
2018-08-06T05:45:12.096Z,52.36
2018-08-06T05:46:12.064Z,52.7
2018-08-06T05:47:12.109Z,52.51
2018-08-06T05:48:12.262Z,52.56
2018-08-06T05:49:12.208Z,52.41
2018-08-06T05:50:12.097Z,52.53
2018-08-06T05:51:12.053Z,52.38
2018-08-06T05:52:12.113Z,52.77
2018-08-06T05:53:12.099Z,52.6
2018-08-06T05:54:12.084Z,52.42
2018-08-06T05:55:12.125Z,52.54
2018-08-06T05:56:12.074Z,52.37
2018-08-06T05:57:12.101Z,52.65
2018-08-06T05:58:12.231Z,52.49
2018-08-06T05:59:12.246Z,52.37
2018-08-06T06:00:12.060Z,52.24
2018-08-06T06:01:12.292Z,52.34
2018-08-06T06:02:13.837Z,52.39
2018-08-06T06:03:12.338Z,52.74
2018-08-06T06:04:12.146Z,52.84
2018-08-06T06:05:12.856Z,52.89
2018-08-06T06:06:12.882Z,52.68
2018-08-06T06:07:13.018Z,52.76
2018-08-06T06:08:12.319Z,52.52
2018-08-06T06:09:12.078Z,52.49
2018-08-06T06:10:12.080Z,52.39
2018-08-06T06:11:12.169Z,52.31
2018-08-06T06:12:12.163Z,52.3
2018-08-06T06:13:12.090Z,52.39
2018-08-06T06:14:12.107Z,52.34
2018-08-06T06:15:12.108Z,52.42
2018-08-06T06:16:17.094Z,52.5
2018-08-06T06:17:12.361Z,52.45
2018-08-06T06:18:12.104Z,52.37
2018-08-06T06:19:12.318Z,52.21
2018-08-06T06:20:12.092Z,52.44
2018-08-06T06:21:14.745Z,52.26
2018-08-06T06:22:12.071Z,52.11
2018-08-06T06:23:12.277Z,52.37
2018-08-06T06:24:12.112Z,52.12
2018-08-06T06:25:12.183Z,51.94
2018-08-06T06:26:12.125Z,51.78
2018-08-06T06:27:12.277Z,52.06
2018-08-06T06:28:12.257Z,51.92
2018-08-06T06:29:12.122Z,51.81
2018-08-06T06:30:12.123Z,51.94
2018-08-06T06:31:12.152Z,51.89
2018-08-06T06:32:12.271Z,51.79
2018-08-06T06:33:12.142Z,51.81
2018-08-06T06:34:12.273Z,51.92
2018-08-06T06:35:12.161Z,51.71
2018-08-06T06:36:12.152Z,51.6
2018-08-06T06:37:12.168Z,51.62
2018-08-06T06:38:12.140Z,51.9
2018-08-06T06:39:12.169Z,51.75
2018-08-06T06:40:12.132Z,51.7
2018-08-06T06:41:12.338Z,51.64
2018-08-06T06:42:12.129Z,51.67
2018-08-06T06:43:12.290Z,51.66
2018-08-06T06:44:12.125Z,51.6
2018-08-06T06:45:12.176Z,51.86
2018-08-06T06:46:12.150Z,51.93
2018-08-06T06:47:12.200Z,51.83
2018-08-06T06:48:12.161Z,51.67
2018-08-06T06:49:12.481Z,51.6
2018-08-06T06:50:12.160Z,51.67
2018-08-06T06:51:12.236Z,51.8
2018-08-06T06:52:12.164Z,51.64
2018-08-06T06:53:12.148Z,51.63
2018-08-06T06:54:12.142Z,51.71
2018-08-06T06:55:12.139Z,51.98
2018-08-06T06:56:12.170Z,51.73
2018-08-06T06:57:12.178Z,51.79
2018-08-06T06:58:12.185Z,51.38
2018-08-06T06:59:12.165Z,51.48
2018-08-06T07:00:12.224Z,51.39
2018-08-06T07:01:12.161Z,51.41
2018-08-06T07:02:12.147Z,51.27
2018-08-06T07:03:12.145Z,51.33
2018-08-06T07:04:12.147Z,51.42
2018-08-06T07:05:12.168Z,51.15
2018-08-06T07:06:12.162Z,50.71
2018-08-06T07:07:12.199Z,50.83
2018-08-06T07:08:12.162Z,50.57
2018-08-06T07:09:12.254Z,50.55
2018-08-06T07:10:12.215Z,50.14
2018-08-06T07:11:12.224Z,50.18
2018-08-06T07:12:12.179Z,50.54
2018-08-06T07:13:12.170Z,50.45
2018-08-06T07:14:12.326Z,50.52
2018-08-06T07:15:12.229Z,50.13
2018-08-06T07:16:12.250Z,49.93
2018-08-06T07:17:12.173Z,50.6
2018-08-06T07:18:12.313Z,49.95
2018-08-06T07:19:12.407Z,49.99
2018-08-06T07:20:12.359Z,49.85
2018-08-06T07:21:12.190Z,49.91
2018-08-06T07:22:12.199Z,50.12
2018-08-06T07:23:12.387Z,49.99
2018-08-06T07:24:12.172Z,50.39
2018-08-06T07:25:12.163Z,50.36
2018-08-06T07:26:12.195Z,49.75
2018-08-06T07:27:12.182Z,49.83
2018-08-06T07:28:12.185Z,49.45
2018-08-06T07:29:12.263Z,49.1
2018-08-06T07:30:12.227Z,49.33
2018-08-06T07:31:12.213Z,49.28
2018-08-06T07:32:12.221Z,49.01
2018-08-06T07:33:12.257Z,48.87
2018-08-06T07:34:12.443Z,49.18
2018-08-06T07:35:12.161Z,49.27
2018-08-06T07:36:12.312Z,49.51
2018-08-06T07:37:12.257Z,49.34
2018-08-06T07:38:12.194Z,48.98
2018-08-06T07:39:12.184Z,48.59
2018-08-06T07:40:12.501Z,48.5
2018-08-06T07:41:12.290Z,48.68
2018-08-06T07:42:12.378Z,48.47
2018-08-06T07:43:12.550Z,48.65
2018-08-06T07:44:12.179Z,48.78
2018-08-06T07:45:12.213Z,48.84
2018-08-06T07:46:12.465Z,48.57
2018-08-06T07:47:12.248Z,48.42
2018-08-06T07:48:12.226Z,48.22
2018-08-06T07:49:12.265Z,48.02
2018-08-06T07:50:12.338Z,48.12
2018-08-06T07:51:12.178Z,47.89
2018-08-06T07:52:12.198Z,47.89
2018-08-06T07:53:12.271Z,47.92
2018-08-06T07:54:12.413Z,47.78
2018-08-06T07:55:12.234Z,48.06
2018-08-06T07:56:12.203Z,48.01
2018-08-06T07:57:12.251Z,47.99
2018-08-06T07:58:12.312Z,47.91
2018-08-06T07:59:12.474Z,47.92
2018-08-06T08:00:12.208Z,47.97
2018-08-06T08:01:12.185Z,47.73
2018-08-06T08:02:12.214Z,47.96
2018-08-06T08:03:12.206Z,47.91
2018-08-06T08:04:12.283Z,47.84
2018-08-06T08:05:12.225Z,47.53
2018-08-06T08:06:12.243Z,47.45
2018-08-06T08:07:12.222Z,47.55
2018-08-06T08:08:12.219Z,47.64
2018-08-06T08:09:12.248Z,47.6
2018-08-06T08:10:12.224Z,47.49
2018-08-06T08:11:12.244Z,47.35
2018-08-06T08:12:12.247Z,47.49
2018-08-06T08:13:12.220Z,47.66
2018-08-06T08:14:12.225Z,47.45
2018-08-06T08:15:12.220Z,47.05
2018-08-06T08:16:12.266Z,47.12
2018-08-06T08:17:12.247Z,46.91
2018-08-06T08:18:12.234Z,47.17
2018-08-06T08:19:12.227Z,47.06
2018-08-06T08:20:13.448Z,47.29
2018-08-06T08:21:12.282Z,47.18
2018-08-06T08:22:12.257Z,47.01
2018-08-06T08:23:12.293Z,46.87
2018-08-06T08:24:12.261Z,46.78
2018-08-06T08:25:12.251Z,46.76
2018-08-06T08:26:12.359Z,46.76
2018-08-06T08:27:12.391Z,46.57
2018-08-06T08:28:12.288Z,46.52
2018-08-06T08:29:12.371Z,46.66
2018-08-06T08:30:12.248Z,46.72
2018-08-06T08:31:12.320Z,46.45
2018-08-06T08:32:12.330Z,46.65
2018-08-06T08:33:12.309Z,46.61
2018-08-06T08:34:12.280Z,46.4
2018-08-06T08:35:12.539Z,46.43
2018-08-06T08:36:12.442Z,46.3
2018-08-06T08:37:12.291Z,46.25
2018-08-06T08:38:12.302Z,46.4
2018-08-06T08:39:12.262Z,46.22
2018-08-06T08:40:12.330Z,45.8
2018-08-06T08:41:12.300Z,45.94
2018-08-06T08:42:12.430Z,45.74
2018-08-06T08:43:13.195Z,46.06
2018-08-06T08:44:12.279Z,46.03
2018-08-06T08:45:12.618Z,46.39
2018-08-06T08:46:12.348Z,46.24
2018-08-06T08:47:12.332Z,46.05
2018-08-06T08:48:12.315Z,45.62
2018-08-06T08:49:12.359Z,45.77
2018-08-06T08:50:12.553Z,45.87
2018-08-06T08:51:12.291Z,45.96
2018-08-06T08:52:12.362Z,45.72
2018-08-06T08:53:12.285Z,45.42
2018-08-06T08:54:12.450Z,45.63
2018-08-06T08:55:12.345Z,45.89
2018-08-06T08:56:12.361Z,45.44
2018-08-06T08:57:12.536Z,45.43
2018-08-06T08:58:12.539Z,45.37
2018-08-06T08:59:12.305Z,45.18
2018-08-06T09:00:12.313Z,45.31
2018-08-06T09:01:12.307Z,45.43
2018-08-06T09:02:12.298Z,45.32
2018-08-06T09:03:12.344Z,45.3
2018-08-06T09:04:12.299Z,44.94
2018-08-06T09:05:12.307Z,44.95
2018-08-06T09:06:12.325Z,44.94
2018-08-06T09:07:12.463Z,45.05
2018-08-06T09:08:12.385Z,45.14
2018-08-06T09:09:12.296Z,44.75
2018-08-06T09:10:12.313Z,45.05
2018-08-06T09:11:12.430Z,44.81
2018-08-06T09:12:12.431Z,44.61
2018-08-06T09:13:12.377Z,44.6
2018-08-06T09:14:12.649Z,44.81
2018-08-06T09:15:12.384Z,44.71
2018-08-06T09:16:12.326Z,44.69
2018-08-06T09:17:12.351Z,44.66
2018-08-06T09:18:12.320Z,44.48
2018-08-06T09:19:12.324Z,44.54
2018-08-06T09:20:12.357Z,44.4
2018-08-06T09:21:12.660Z,44.27
2018-08-06T09:22:12.353Z,44.22
2018-08-06T09:23:12.338Z,44.16
2018-08-06T09:24:12.334Z,44.02
2018-08-06T09:25:12.392Z,44.07
2018-08-06T09:26:12.349Z,44.15
2018-08-06T09:27:12.352Z,44.3
2018-08-06T09:28:12.341Z,44.42
2018-08-06T09:29:12.365Z,44.2
2018-08-06T09:30:12.331Z,44.17
2018-08-06T09:31:12.388Z,44
2018-08-06T09:32:12.355Z,43.94
2018-08-06T09:33:12.362Z,43.63
2018-08-06T09:34:12.305Z,43.78
2018-08-06T09:35:12.325Z,43.98
2018-08-06T09:36:12.328Z,43.99
2018-08-06T09:37:12.415Z,43.67
2018-08-06T09:38:12.367Z,43.82
2018-08-06T09:39:12.364Z,43.46
2018-08-06T09:40:12.383Z,43.83
2018-08-06T09:41:12.425Z,43.53
2018-08-06T09:42:12.421Z,43.35
2018-08-06T09:43:12.347Z,43.42
2018-08-06T09:44:12.427Z,43.03
2018-08-06T09:45:12.398Z,42.41
2018-08-06T09:46:12.413Z,42.48
2018-08-06T09:47:12.654Z,42.46
2018-08-06T09:48:12.341Z,42.6
2018-08-06T09:49:12.332Z,42.4
2018-08-06T09:50:12.461Z,42.2
2018-08-06T09:51:12.457Z,42.36
2018-08-06T09:52:12.366Z,41.87
2018-08-06T09:53:12.402Z,42.21
2018-08-06T09:54:12.409Z,42.29
2018-08-06T09:55:12.365Z,42.09
2018-08-06T09:56:12.351Z,41.81
2018-08-06T09:57:13.012Z,41.91
2018-08-06T09:58:12.354Z,41.61
2018-08-06T09:59:12.403Z,41.55
2018-08-06T10:00:12.830Z,41.57
2018-08-06T10:01:12.341Z,41.69
2018-08-06T10:02:12.390Z,41.94
2018-08-06T10:03:12.372Z,41.94
2018-08-06T10:04:13.181Z,42.3
2018-08-06T10:05:12.380Z,42.07
2018-08-06T10:06:13.484Z,41.41
2018-08-06T10:07:12.362Z,41.76
2018-08-06T10:08:12.538Z,41.56
2018-08-06T10:09:12.360Z,41.42
2018-08-06T10:10:12.810Z,41.63
2018-08-06T10:11:13.038Z,41.42
2018-08-06T10:12:12.553Z,41.45
2018-08-06T10:13:12.420Z,41.26
2018-08-06T10:14:12.439Z,41.26
2018-08-06T10:15:12.373Z,40.96
2018-08-06T10:16:12.404Z,40.89
2018-08-06T10:17:12.386Z,41.16
2018-08-06T10:18:12.407Z,40.4
2018-08-06T10:19:13.195Z,40.21
2018-08-06T10:20:12.484Z,40.37
2018-08-06T10:21:12.519Z,40.13
2018-08-06T10:22:12.525Z,40.29
2018-08-06T10:23:12.471Z,40.28
2018-08-06T10:24:12.441Z,40.58
2018-08-06T10:25:12.426Z,40.59
2018-08-06T10:26:12.403Z,40.8
2018-08-06T10:27:12.447Z,40.2
2018-08-06T10:28:12.554Z,39.71
2018-08-06T10:29:12.602Z,40.17
2018-08-06T10:30:12.618Z,39.82
2018-08-06T10:31:12.474Z,39.34
2018-08-06T10:32:12.406Z,38.87
2018-08-06T10:33:12.449Z,38.92
2018-08-06T10:34:12.409Z,39.35
2018-08-06T10:35:12.461Z,39.72
2018-08-06T10:36:12.401Z,39.43
2018-08-06T10:37:12.440Z,39.86
2018-08-06T10:38:12.447Z,39.61
2018-08-06T10:39:12.476Z,38.76
2018-08-06T10:40:12.565Z,38.84
2018-08-06T10:41:12.399Z,39.17
2018-08-06T10:42:12.489Z,39.21
2018-08-06T10:43:12.438Z,39.35
2018-08-06T10:44:12.417Z,39.02
2018-08-06T10:45:12.497Z,38.93
2018-08-06T10:46:12.442Z,38.87
2018-08-06T10:47:12.439Z,38.61
2018-08-06T10:48:12.677Z,38.72
2018-08-06T10:49:12.431Z,38.31
2018-08-06T10:50:12.449Z,38.4
2018-08-06T10:51:12.423Z,38.79
2018-08-06T10:52:12.783Z,39.06
2018-08-06T10:53:12.601Z,38.72
2018-08-06T10:54:12.721Z,38.12
2018-08-06T10:55:12.610Z,37.75
2018-08-06T10:56:12.520Z,38.07
2018-08-06T10:57:12.587Z,38.18
2018-08-06T10:58:12.669Z,38.05
2018-08-06T10:59:12.596Z,38.25
2018-08-06T11:00:12.456Z,38.27
2018-08-06T11:01:12.857Z,38.23
2018-08-06T11:02:12.451Z,37.63
2018-08-06T11:03:12.562Z,38.01
2018-08-06T11:04:12.574Z,37.9
2018-08-06T11:05:13.002Z,38.07
2018-08-06T11:06:12.515Z,37.65
2018-08-06T11:07:12.547Z,37.9
2018-08-06T11:08:12.591Z,38.03
2018-08-06T11:09:12.524Z,37.54
2018-08-06T11:10:12.830Z,37.78
2018-08-06T11:11:12.496Z,37.53
2018-08-06T11:12:12.626Z,37.83
2018-08-06T11:13:12.522Z,37.92
2018-08-06T11:14:13.205Z,36.68
2018-08-06T11:15:12.513Z,37.38
2018-08-06T11:16:12.546Z,36.86
2018-08-06T11:17:12.978Z,37.39
2018-08-06T11:18:12.506Z,37.42
2018-08-06T11:19:12.679Z,37.08
2018-08-06T11:20:12.655Z,36.62
2018-08-06T11:21:12.607Z,36.71
2018-08-06T11:22:12.536Z,37
2018-08-06T11:23:12.510Z,37.03
2018-08-06T11:24:12.531Z,36.57
2018-08-06T11:25:12.531Z,36.84
2018-08-06T11:26:12.547Z,37.12
2018-08-06T11:27:12.550Z,37.2
2018-08-06T11:28:12.782Z,36.91
2018-08-06T11:29:12.573Z,36.68
2018-08-06T11:30:12.540Z,36.4
2018-08-06T11:31:12.508Z,36.43
2018-08-06T11:32:12.543Z,36.67
2018-08-06T11:33:12.509Z,36.51
2018-08-06T11:34:12.496Z,35.91
2018-08-06T11:35:12.479Z,35.99
2018-08-06T11:36:12.622Z,36.21
2018-08-06T11:37:12.564Z,35.88
2018-08-06T11:38:12.505Z,35.94
2018-08-06T11:39:12.515Z,35.78
2018-08-06T11:40:12.516Z,35.7
2018-08-06T11:41:12.481Z,36.02
2018-08-06T11:42:12.506Z,35.74
2018-08-06T11:43:12.576Z,34.97
2018-08-06T11:44:12.512Z,35.31
2018-08-06T11:45:12.507Z,35.14
2018-08-06T11:46:12.545Z,34.97
2018-08-06T11:47:12.519Z,35.24
2018-08-06T11:48:12.529Z,35.28
2018-08-06T11:49:12.579Z,35.4
2018-08-06T11:50:12.708Z,34.8
2018-08-06T11:51:12.546Z,35
2018-08-06T11:52:12.649Z,35.12
2018-08-06T11:53:12.534Z,34.98
2018-08-06T11:54:12.554Z,35.33
2018-08-06T11:55:13.671Z,35.22
2018-08-06T11:56:12.532Z,35.41
2018-08-06T11:57:12.519Z,34.98
2018-08-06T11:58:12.870Z,35.16
2018-08-06T11:59:12.557Z,35.03
2018-08-06T12:00:12.497Z,34.74
2018-08-06T12:01:12.522Z,34.81
2018-08-06T12:02:12.536Z,35
2018-08-06T12:03:12.571Z,34.84
2018-08-06T12:04:12.553Z,34.67
2018-08-06T12:05:12.521Z,34.89
2018-08-06T12:06:12.529Z,34.4
2018-08-06T12:07:12.597Z,34.59
2018-08-06T12:08:12.557Z,34.52
2018-08-06T12:09:12.616Z,34.2
2018-08-06T12:10:12.547Z,34.76
2018-08-06T12:11:12.558Z,35.28
2018-08-06T12:12:12.562Z,34.78
2018-08-06T12:13:12.558Z,34.97
2018-08-06T12:14:12.614Z,34.54
2018-08-06T12:15:13.159Z,34.48
2018-08-06T12:16:12.565Z,34.65
2018-08-06T12:17:12.595Z,34.29
2018-08-06T12:18:12.681Z,34.33
2018-08-06T12:19:12.643Z,33.64
2018-08-06T12:20:12.656Z,34.23
2018-08-06T12:21:12.629Z,34.58
2018-08-06T12:22:12.604Z,34.58
2018-08-06T12:23:12.586Z,33.98
2018-08-06T12:24:12.624Z,33.3
2018-08-06T12:25:12.857Z,33.68
2018-08-06T12:26:13.138Z,34.48
2018-08-06T12:27:12.696Z,34.48
2018-08-06T12:28:12.587Z,34.6
2018-08-06T12:29:12.875Z,33.89
2018-08-06T12:30:12.882Z,34.1
2018-08-06T12:31:13.151Z,34.31
2018-08-06T12:32:12.580Z,33.41
2018-08-06T12:33:12.756Z,33.31
2018-08-06T12:34:12.574Z,33.35
2018-08-06T12:35:12.911Z,33.36
2018-08-06T12:36:12.646Z,33.3
2018-08-06T12:37:12.562Z,33.35
2018-08-06T12:38:13.010Z,33.15
2018-08-06T12:39:12.616Z,33.31
2018-08-06T12:40:12.704Z,33.14
2018-08-06T12:41:12.575Z,33.24
2018-08-06T12:42:12.698Z,33.41
2018-08-06T12:43:12.705Z,33.32
2018-08-06T12:44:12.583Z,33.62
2018-08-06T12:45:12.597Z,33.94
2018-08-06T12:46:13.138Z,33.96
2018-08-06T12:47:12.670Z,34.09
2018-08-06T12:48:12.678Z,33.69
2018-08-06T12:49:12.590Z,32.85
2018-08-06T12:50:12.731Z,32.98
2018-08-06T12:51:12.956Z,33.45
2018-08-06T12:52:12.748Z,33.37
2018-08-06T12:53:12.623Z,33.29
2018-08-06T12:54:12.615Z,33.57
2018-08-06T12:55:12.657Z,33.09